Time;durP1;ratioP1;P1;durP2;ratioP2;P2;SDS_P1;SDS_P2;PMS_P1;PMS_P2;Temp;Humidity;BMP_temperature;BMP_pressure;BME280_temperature;BME280_humidity;BME280_pressure;Samples;Min_cycle;Max_cycle;Signal;HPM_P1;HPM_P2
2023/06/30 00:02:01;;;;;;;7.45;4.57;;;22.90;50.50;;;24.69;40.55;97241.72;5031964;28;20496;-58
2023/06/30 00:04:30;;;;;;;4.63;4.18;;;22.90;50.80;;;24.64;40.52;97233.50;5032046;28;20412;-57
2023/06/30 00:06:59;;;;;;;5.53;4.75;;;22.80;50.90;;;24.60;40.47;97233.22;5031793;28;20046;-57
2023/06/30 00:09:28;;;;;;;6.43;4.38;;;22.80;51.00;;;24.55;40.97;97231.28;5030077;28;20057;-56
2023/06/30 00:11:55;;;;;;;4.90;4.35;;;22.70;51.30;;;24.51;40.79;97230.16;5030802;28;20042;-53
2023/06/30 00:14:23;;;;;;;4.95;4.15;;;22.70;51.60;;;24.48;41.01;97229.84;5031630;28;20416;-57
2023/06/30 00:16:51;;;;;;;6.07;4.35;;;22.60;51.80;;;24.44;41.18;97224.09;5031734;28;20068;-57
2023/06/30 00:19:18;;;;;;;4.95;4.20;;;22.60;52.00;;;24.42;41.36;97217.28;5014023;28;20057;-56
2023/06/30 00:21:47;;;;;;;7.75;4.57;;;22.60;52.00;;;24.39;41.30;97221.34;5030632;28;20508;-56
2023/06/30 00:24:15;;;;;;;7.72;4.95;;;22.60;52.00;;;24.37;41.10;97212.63;5031500;28;20056;-57
2023/06/30 00:26:43;;;;;;;6.82;4.95;;;22.60;51.50;;;24.34;40.97;97207.69;5031596;28;20038;-58
2023/06/30 00:29:12;;;;;;;6.90;4.78;;;22.50;51.40;;;24.29;40.96;97200.34;5030393;28;20045;-57
2023/06/30 00:31:39;;;;;;;5.43;4.47;;;22.50;51.50;;;24.29;40.83;97205.78;5029715;28;20056;-57
2023/06/30 00:34:07;;;;;;;6.70;4.65;;;22.50;51.20;;;24.28;40.86;97193.25;5031751;28;20048;-57
2023/06/30 00:36:34;;;;;;;5.57;5.07;;;22.50;51.10;;;24.26;40.98;97189.16;5030241;28;20053;-56
2023/06/30 00:39:03;;;;;;;5.70;5.10;;;22.50;51.20;;;24.23;40.59;97184.22;5029766;28;20041;-56
2023/06/30 00:41:30;;;;;;;9.30;5.10;;;22.50;51.20;;;24.22;41.05;97182.59;5031432;28;20049;-56
2023/06/30 00:43:58;;;;;;;4.97;4.43;;;22.50;51.00;;;24.19;41.06;97183.91;5031287;28;20045;-57
2023/06/30 00:46:26;;;;;;;5.00;4.32;;;22.50;51.10;;;24.18;40.92;97185.81;5031404;28;20052;-56
2023/06/30 00:48:56;;;;;;;5.30;4.80;;;22.50;51.20;;;24.17;41.13;97181.47;5030696;28;20044;-56
2023/06/30 00:51:24;;;;;;;4.70;4.20;;;22.50;51.20;;;24.18;41.03;97174.13;5029299;28;20424;-57
2023/06/30 00:53:51;;;;;;;11.27;5.07;;;22.50;51.20;;;24.16;41.15;97173.56;5029685;28;20448;-58
2023/06/30 00:56:19;;;;;;;7.43;4.75;;;22.50;51.50;;;24.15;41.29;97170.00;5029738;28;20053;-57
2023/06/30 00:58:47;;;;;;;7.45;4.78;;;22.40;51.60;;;24.12;41.38;97165.13;5012857;28;20064;-58
2023/06/30 01:02:06;;;;;;;6.63;5.20;;;22.30;51.80;;;24.06;41.37;97163.44;5031026;28;20052;-57
2023/06/30 01:04:54;;;;;;;5.13;4.10;;;22.30;52.50;;;24.10;41.44;97170.00;5025653;28;20061;-57
2023/06/30 01:07:38;;;;;;;5.90;4.30;;;22.40;52.50;;;24.08;41.40;97163.16;5025609;28;20045;-57
2023/06/30 01:10:15;;;;;;;5.70;4.40;;;22.30;52.80;;;24.04;41.40;97162.88;5022368;28;20412;-55
2023/06/30 01:12:44;;;;;;;5.78;4.40;;;22.20;52.60;;;23.99;41.65;97160.13;5030660;28;20057;-57
2023/06/30 01:15:13;;;;;;;5.90;5.05;;;22.20;52.50;;;23.96;41.65;97153.31;5030404;28;20505;-42
2023/06/30 01:18:09;;;;;;;5.57;3.95;;;22.10;52.50;;;23.91;41.75;97155.97;5029410;28;20045;-41
2023/06/30 01:20:40;;;;;;;8.18;4.97;;;22.10;52.90;;;23.91;41.63;97155.16;5043776;28;20057;-41
2023/06/30 01:23:37;;;;;;;6.15;4.45;;;22.00;52.50;;;23.84;41.84;97158.06;5028721;28;20054;-43
2023/06/30 01:26:06;;;;;;;7.22;5.07;;;22.00;53.70;;;23.85;41.95;97162.44;5029739;28;20045;-40
2023/06/30 01:28:35;;;;;;;4.93;4.38;;;22.00;53.20;;;23.82;42.38;97162.13;5028979;28;20413;-40
2023/06/30 01:31:08;;;;;;;5.10;3.85;;;22.00;53.30;;;23.81;42.30;97158.59;5021765;28;20501;-40
2023/06/30 01:33:37;;;;;;;;;;;22.00;53.30;;;23.81;41.95;97155.03;5029995;28;20044;-41
2023/06/30 01:36:07;;;;;;;5.60;4.43;;;22.00;54.40;;;23.82;42.14;97151.25;5021344;28;19921;-42
2023/06/30 01:38:36;;;;;;;4.43;4.03;;;21.90;53.30;;;23.80;42.31;97153.41;5012926;28;20042;-42
2023/06/30 01:41:07;;;;;;;6.70;4.15;;;21.90;53.50;;;23.75;42.50;97148.75;5031701;28;20045;-41
2023/06/30 01:43:36;;;;;;;6.68;4.43;;;21.90;53.60;;;23.72;42.44;97141.91;5002028;28;20053;-42
2023/06/30 01:46:04;;;;;;;5.22;4.65;;;21.90;53.70;;;23.70;42.51;97144.06;5033397;28;20513;-42
2023/06/30 01:48:34;;;;;;;7.15;4.68;;;21.90;53.60;;;23.68;42.66;97142.69;5034177;28;20056;-41
2023/06/30 01:51:01;;;;;;;7.10;4.57;;;21.90;53.80;;;23.65;42.55;97143.19;5033402;28;20060;-41
2023/06/30 01:53:29;;;;;;;6.32;4.47;;;21.90;53.90;;;23.64;42.80;97141.56;5032662;28;20052;-42
2023/06/30 01:55:58;;;;;;;6.38;4.60;;;21.90;53.90;;;23.62;42.55;97141.81;5016890;28;20069;-43
2023/06/30 01:58:26;;;;;;;4.78;4.28;;;21.90;53.60;;;23.61;42.76;97139.34;5016851;28;20056;-42
2023/06/30 02:00:53;;;;;;;6.15;4.85;;;21.90;54.60;;;23.56;42.87;97140.13;5032918;28;20076;-41
2023/06/30 02:03:22;;;;;;;5.78;4.72;;;21.80;53.90;;;23.52;42.94;97131.69;5033240;28;20053;-42
2023/06/30 02:05:50;;;;;;;5.80;4.30;;;21.70;54.40;;;23.50;43.14;97130.31;5032785;28;20050;-42
2023/06/30 02:08:18;;;;;;;5.07;4.57;;;21.70;54.50;;;23.48;43.11;97127.84;5033813;28;20417;-42
2023/06/30 02:10:45;;;;;;;5.18;4.68;;;21.70;54.50;;;23.43;43.31;97125.06;5032704;28;20037;-43
2023/06/30 02:13:13;;;;;;;5.00;4.50;;;21.60;54.80;;;23.40;43.31;97128.31;5033388;28;20046;-43
2023/06/30 02:15:41;;;;;;;5.35;4.78;;;21.60;55.00;;;23.35;43.45;97126.34;5033060;28;20056;-42
2023/06/30 02:18:09;;;;;;;4.75;4.22;;;21.50;55.20;;;23.34;43.58;97126.59;5025557;28;20054;-41
2023/06/30 02:20:36;;;;;;;4.90;4.38;;;21.50;55.20;;;23.31;43.44;97133.34;5033764;28;20054;-40
2023/06/30 02:23:04;;;;;;;5.60;4.80;;;21.50;55.20;;;23.28;43.63;97131.13;5033582;28;20033;-43
2023/06/30 02:25:32;;;;;;;5.40;4.78;;;21.50;55.40;;;23.22;43.82;97134.06;5033933;28;20393;-40
2023/06/30 02:27:59;;;;;;;4.97;4.22;;;21.30;55.50;;;23.18;43.74;97128.31;5033627;28;20488;-42
2023/06/30 02:30:28;;;;;;;4.82;4.32;;;21.30;55.90;;;23.16;43.66;97138.63;5033543;28;20064;-42
2023/06/30 02:32:56;;;;;;;7.68;5.38;;;21.30;56.00;;;23.15;43.69;97132.38;5034310;28;20452;-42
2023/06/30 02:35:24;;;;;;;6.93;5.90;;;21.30;55.60;;;23.18;43.64;97134.56;5033604;28;20394;-42
2023/06/30 02:37:53;;;;;;;7.05;5.68;;;21.40;55.30;;;23.21;43.70;97129.72;5033417;28;20049;-41
2023/06/30 02:40:22;;;;;;;8.15;5.57;;;21.40;55.40;;;23.24;43.87;97131.91;5033768;28;20542;-41
2023/06/30 02:42:50;;;;;;;8.95;5.20;;;21.50;55.40;;;23.25;43.71;97126.25;5032556;28;20053;-40
2023/06/30 02:45:17;;;;;;;6.30;4.80;;;21.60;55.30;;;23.26;43.92;97130.56;5032149;28;20055;-42
2023/06/30 02:47:45;;;;;;;5.47;4.63;;;21.60;55.20;;;23.26;43.91;97137.91;5033258;28;20469;-40
2023/06/30 02:50:13;;;;;;;5.75;5.20;;;21.60;55.20;;;23.25;44.10;97130.84;5031420;28;20049;-40
2023/06/30 02:52:41;;;;;;;8.13;5.05;;;21.60;55.30;;;23.23;44.14;97128.38;5031015;28;20421;-41
2023/06/30 02:55:09;;;;;;;5.80;5.13;;;21.60;55.50;;;23.23;44.21;97122.16;5031961;28;20420;-42
2023/06/30 02:57:36;;;;;;;5.53;4.88;;;21.60;55.70;;;23.22;44.21;97124.03;5031606;28;20061;-42
2023/06/30 03:00:06;;;;;;;8.63;5.15;;;21.50;55.80;;;23.22;44.21;97118.59;5031558;28;20053;-41
2023/06/30 03:02:34;;;;;;;8.57;5.20;;;21.60;56.00;;;23.23;44.32;97128.38;5031871;28;20076;-41
2023/06/30 03:05:02;;;;;;;8.05;5.00;;;21.60;56.70;;;23.23;44.63;97125.69;5031330;28;20049;-41
2023/06/30 03:07:31;;;;;;;7.32;4.82;;;21.60;56.10;;;23.22;44.35;97120.50;5032015;28;20519;-40
2023/06/30 03:10:00;;;;;;;9.02;5.50;;;21.50;56.40;;;23.18;44.41;97123.72;5031684;28;20509;-44
2023/06/30 03:12:28;;;;;;;5.65;5.13;;;21.40;56.20;;;23.18;44.31;97115.56;5031655;28;20116;-40
2023/06/30 03:14:56;;;;;;;5.90;5.30;;;21.40;56.00;;;23.18;44.41;97117.47;5031741;28;20535;-42
2023/06/30 03:17:25;;;;;;;6.07;5.47;;;21.40;56.00;;;23.15;44.27;97105.22;5031229;28;20053;-41
2023/06/30 03:19:53;;;;;;;6.63;5.00;;;21.40;56.20;;;23.11;44.48;97105.97;5031240;28;20064;-40
2023/06/30 03:22:22;;;;;;;7.60;5.82;;;21.30;56.40;;;23.09;44.38;97108.13;5032893;28;20050;-41
2023/06/30 03:24:49;;;;;;;7.00;5.18;;;21.30;56.50;;;23.06;44.83;97103.22;5031539;28;20057;-41
2023/06/30 03:27:17;;;;;;;8.23;5.63;;;21.20;56.90;;;22.99;44.93;97106.94;5032179;28;20044;-40
2023/06/30 03:29:45;;;;;;;6.47;5.88;;;21.20;57.20;;;22.97;45.16;97106.38;5032442;28;20056;-43
2023/06/30 03:32:13;;;;;;;9.75;6.07;;;21.10;57.60;;;22.91;45.21;97104.63;5031644;28;20524;-40
2023/06/30 03:34:41;;;;;;;7.97;6.05;;;21.00;57.70;;;22.89;45.18;97104.06;5014688;28;20041;-41
2023/06/30 03:37:08;;;;;;;10.30;7.03;;;21.10;57.80;;;22.88;45.22;97105.16;5031167;28;20080;-42
2023/06/30 03:39:38;;;;;;;7.38;6.32;;;21.00;58.00;;;22.85;45.33;97102.13;5032768;28;20053;-41
2023/06/30 03:42:06;;;;;;;9.20;6.38;;;20.90;58.50;;;22.84;45.31;97103.19;5030797;28;20041;-40
2023/06/30 03:44:37;;;;;;;8.63;6.20;;;21.00;58.30;;;22.80;45.81;97095.56;5033064;28;20048;-56
2023/06/30 03:47:05;;;;;;;8.68;6.40;;;21.00;58.50;;;22.81;45.62;97101.81;5030812;28;20049;-56
2023/06/30 03:49:33;;;;;;;6.18;5.45;;;21.00;58.40;;;22.81;45.50;97093.69;5030780;28;20045;-55
2023/06/30 03:52:03;;;;;;;9.25;7.47;;;21.00;58.30;;;22.82;45.49;97098.03;5031766;28;20060;-55
2023/06/30 03:54:31;;;;;;;9.85;8.75;;;21.00;58.90;;;22.81;45.66;97094.47;5030996;28;20041;-56
2023/06/30 03:56:59;;;;;;;8.32;6.72;;;21.10;58.20;;;22.82;45.59;97098.03;5031917;28;20057;-54
2023/06/30 03:59:27;;;;;;;10.25;6.40;;;21.10;58.30;;;22.84;45.69;97097.75;5030839;28;20041;-56
2023/06/30 04:01:55;;;;;;;15.20;6.13;;;21.10;58.20;;;22.87;45.83;97094.56;5032462;28;20050;-56
2023/06/30 04:04:22;;;;;;;9.30;6.45;;;21.10;58.10;;;22.89;45.70;97095.94;5032316;28;20038;-56
2023/06/30 04:06:50;;;;;;;7.88;5.65;;;21.20;58.20;;;22.91;45.63;97104.63;5031797;28;20056;-57
2023/06/30 04:09:18;;;;;;;7.25;5.85;;;21.20;58.20;;;22.92;45.63;97097.34;5023643;28;20502;-56
2023/06/30 04:11:48;;;;;;;6.95;5.47;;;21.20;58.10;;;22.95;45.72;97099.53;5031954;28;20057;-53
2023/06/30 04:14:16;;;;;;;8.88;5.57;;;21.20;58.10;;;22.95;45.83;97107.66;5031855;28;20120;-55
2023/06/30 04:16:43;;;;;;;6.32;5.63;;;21.20;58.20;;;22.95;45.74;97103.09;5030600;28;20045;-55
2023/06/30 04:19:11;;;;;;;7.20;5.57;;;21.20;58.30;;;22.96;45.86;97102.00;5031416;28;20041;-54
2023/06/30 04:21:39;;;;;;;7.13;6.25;;;21.20;58.40;;;22.98;45.98;97104.47;5031673;28;20041;-57
2023/06/30 04:24:07;;;;;;;7.63;6.32;;;21.20;58.60;;;22.99;45.86;97109.66;5031724;28;20037;-57
2023/06/30 04:26:35;;;;;;;7.85;6.15;;;21.30;58.60;;;23.00;46.05;97107.75;5030208;28;20056;-55
2023/06/30 04:29:02;;;;;;;10.18;6.30;;;21.30;58.70;;;23.01;46.33;97109.38;5030874;28;20049;-57
2023/06/30 04:31:30;;;;;;;6.68;6.03;;;21.30;59.30;;;22.99;46.90;97114.22;5031826;28;20048;-57
2023/06/30 04:33:57;;;;;;;8.70;5.85;;;21.20;60.30;;;22.97;47.29;97110.94;5031551;28;20041;-56
2023/06/30 04:36:28;;;;;;;7.57;6.18;;;21.20;61.40;;;22.86;47.32;97114.66;5031530;28;20092;-56
2023/06/30 04:38:57;;;;;;;10.73;6.22;;;21.10;61.30;;;22.79;47.47;97121.06;5031006;28;20567;-55
2023/06/30 04:41:25;;;;;;;8.02;6.30;;;21.00;61.80;;;22.72;47.71;97123.16;5031454;28;20444;-56
2023/06/30 04:43:53;;;;;;;8.73;6.57;;;20.90;62.80;;;22.72;47.58;97125.88;5031428;28;20064;-56
2023/06/30 04:46:21;;;;;;;7.88;5.60;;;20.90;62.50;;;22.68;47.00;97122.03;5031090;28;20068;-54
2023/06/30 04:48:48;;;;;;;6.43;5.32;;;21.00;60.70;;;22.64;46.95;97120.84;5029479;28;20050;-56
2023/06/30 04:51:16;;;;;;;7.55;5.72;;;21.00;59.70;;;22.68;46.62;97118.47;5030448;28;20060;-53
2023/06/30 04:53:44;;;;;;;6.10;5.05;;;21.10;59.10;;;22.67;46.60;97119.56;5031386;28;20046;-56
2023/06/30 04:56:11;;;;;;;7.47;5.63;;;21.10;58.90;;;22.69;46.52;97125.56;5030516;28;20436;-56
2023/06/30 04:58:39;;;;;;;8.43;5.63;;;21.20;58.60;;;22.75;46.39;97129.97;5030911;28;20052;-55
2023/06/30 05:01:07;;;;;;;6.45;5.78;;;21.30;58.40;;;22.77;46.52;97127.81;5031156;28;20052;-56
2023/06/30 05:03:34;;;;;;;7.13;5.45;;;21.30;58.20;;;22.79;46.33;97125.66;5031033;28;20416;-55
2023/06/30 05:06:02;;;;;;;7.03;5.80;;;21.30;58.00;;;22.84;46.17;97135.75;5031245;28;20045;-41
2023/06/30 05:08:31;;;;;;;8.10;5.82;;;21.40;57.70;;;22.82;46.07;97133.31;5030862;28;20041;-40
2023/06/30 05:10:58;;;;;;;6.90;6.30;;;21.40;57.90;;;22.85;46.09;97137.41;5030935;28;20037;-41
2023/06/30 05:13:27;;;;;;;7.22;5.35;;;21.40;57.80;;;22.88;46.31;97135.00;5031123;28;20046;-43
2023/06/30 05:15:54;;;;;;;7.30;5.35;;;21.40;57.70;;;22.93;46.17;97139.69;5030852;28;20433;-40
2023/06/30 05:18:22;;;;;;;5.35;4.80;;;21.50;57.60;;;22.92;46.03;97127.19;5030652;28;20037;-43
2023/06/30 05:20:50;;;;;;;6.63;5.15;;;21.40;57.80;;;22.96;46.18;97139.19;5030617;28;20049;-45
2023/06/30 05:23:17;;;;;;;10.13;5.43;;;21.40;57.80;;;23.00;45.89;97130.28;5030764;28;20041;-45
2023/06/30 05:25:45;;;;;;;8.25;5.47;;;21.40;57.90;;;23.05;45.96;97129.56;5030703;28;20500;-41
2023/06/30 05:28:13;;;;;;;6.93;5.57;;;21.40;57.90;;;23.09;45.73;97135.28;5030541;28;20057;-43
2023/06/30 05:30:41;;;;;;;6.53;5.93;;;21.50;57.70;;;23.12;45.99;97129.34;5030488;28;20033;-43
2023/06/30 05:33:08;;;;;;;8.20;6.47;;;21.50;57.70;;;23.15;45.91;97124.22;5030428;28;20045;-42
2023/06/30 05:35:36;;;;;;;7.75;5.30;;;21.60;57.70;;;23.18;45.86;97125.59;5029802;28;20049;-41
2023/06/30 05:38:04;;;;;;;8.85;6.78;;;21.60;57.70;;;23.23;45.91;97128.38;5030442;28;20417;-42
2023/06/30 05:40:31;;;;;;;8.90;6.07;;;21.60;57.50;;;23.27;45.70;97134.94;5030410;28;20046;-41
2023/06/30 05:42:59;;;;;;;8.15;6.57;;;21.60;57.50;;;23.22;45.96;97136.78;5030727;28;20056;-41
2023/06/30 05:45:26;;;;;;;7.93;6.28;;;21.60;57.70;;;23.14;46.03;97141.59;5022701;28;20272;-40
2023/06/30 05:47:54;;;;;;;9.05;6.75;;;21.60;57.90;;;23.15;46.41;97143.25;5030328;28;20041;-41
2023/06/30 05:50:23;;;;;;;7.18;5.63;;;21.60;58.20;;;23.18;46.12;97147.34;5029597;28;20064;-42
2023/06/30 05:52:50;;;;;;;7.75;6.07;;;21.60;58.30;;;23.21;46.58;97154.16;5030680;28;20049;-41
2023/06/30 05:55:18;;;;;;;8.90;6.20;;;21.60;58.30;;;23.17;46.71;97160.09;5030523;28;20056;-41
2023/06/30 05:57:47;;;;;;;9.57;6.68;;;21.60;58.80;;;23.20;46.98;97150.59;5029191;28;20052;-42
2023/06/30 06:00:16;;;;;;;10.50;7.03;;;21.60;59.00;;;23.22;46.84;97153.88;5030152;28;20412;-43
2023/06/30 06:02:44;;;;;;;9.68;6.63;;;21.70;58.90;;;23.26;47.09;97144.16;5030575;28;20547;-42
2023/06/30 06:05:11;;;;;;;7.45;6.30;;;21.80;59.10;;;23.29;46.70;97151.00;5030603;28;20050;-42
2023/06/30 06:07:40;;;;;;;7.03;6.07;;;21.80;59.30;;;23.30;46.68;97144.47;5028921;28;20045;-41
2023/06/30 06:10:08;;;;;;;10.40;7.25;;;21.70;59.50;;;23.28;46.91;97149.34;5030207;28;20052;-42
2023/06/30 06:12:39;;;;;;;8.82;7.35;;;21.60;59.70;;;23.28;47.01;97152.88;5030363;28;20488;-41
2023/06/30 06:15:08;;;;;;;8.60;6.82;;;21.60;60.10;;;23.26;47.09;97148.78;5030050;28;20045;-44
2023/06/30 06:17:36;;;;;;;8.77;7.18;;;21.60;60.10;;;23.26;47.01;97156.91;5030476;28;20040;-41
2023/06/30 06:20:04;;;;;;;9.80;7.03;;;21.50;60.30;;;23.25;46.98;97158.81;5028981;28;20045;-41
2023/06/30 06:22:32;;;;;;;9.10;8.20;;;21.60;60.00;;;23.26;47.35;97157.72;5023130;28;20048;-47
2023/06/30 06:24:59;;;;;;;11.07;7.70;;;21.60;60.00;;;23.30;47.26;97166.19;5029163;28;20037;-55
2023/06/30 06:27:28;;;;;;;10.57;7.82;;;21.70;60.10;;;23.31;47.39;97162.41;5031095;28;20424;-57
2023/06/30 06:29:56;;;;;;;7.70;6.60;;;21.70;60.10;;;23.32;47.33;97158.63;5033316;28;20045;-57
2023/06/30 06:32:23;;;;;;;10.13;7.18;;;21.70;60.10;;;23.35;47.04;97155.41;5032403;28;20045;-57
2023/06/30 06:34:51;;;;;;;8.05;7.18;;;21.70;60.20;;;23.34;47.00;97162.72;5033878;28;20064;-56
2023/06/30 06:37:19;;;;;;;10.10;6.90;;;21.70;60.10;;;23.35;47.43;97158.13;5033596;28;20050;-56
2023/06/30 06:39:47;;;;;;;6.93;6.22;;;21.70;60.50;;;23.38;47.09;97169.28;5033508;28;20052;-56
2023/06/30 06:42:14;;;;;;;7.53;6.47;;;21.70;60.10;;;23.38;47.27;97171.19;5033537;28;20417;-56
2023/06/30 06:44:42;;;;;;;10.80;8.43;;;21.70;60.60;;;23.37;47.71;97167.63;5033548;28;20037;-56
2023/06/30 06:48:06;;;;;;;10.68;9.48;;;21.70;61.10;;;23.39;47.68;97175.53;5033333;28;20052;-53
2023/06/30 06:50:33;;;;;;;9.15;7.10;;;21.80;62.50;;;23.45;47.77;97179.13;5025823;28;20037;-55
2023/06/30 06:53:01;;;;;;;7.95;6.78;;;21.80;61.40;;;23.46;47.98;97180.75;5034245;28;20037;-57
2023/06/30 06:55:29;;;;;;;12.57;7.90;;;21.80;61.80;;;23.47;47.84;97179.69;5033090;28;20037;-57
2023/06/30 06:57:56;;;;;;;11.18;7.38;;;21.80;61.30;;;23.47;47.83;97175.06;5033310;28;20063;-57
2023/06/30 07:00:24;;;;;;;8.88;6.55;;;21.90;61.30;;;23.52;47.70;97180.56;5032883;28;20053;-57
2023/06/30 07:02:53;;;;;;;8.15;7.35;;;21.90;61.30;;;23.56;48.11;97189.03;5033270;28;20072;-57
2023/06/30 07:05:20;;;;;;;10.85;7.95;;;22.00;61.80;;;23.61;47.87;97185.53;5031995;28;20060;-57
2023/06/30 07:07:48;;;;;;;8.73;7.93;;;22.00;61.50;;;23.62;47.58;97188.00;5031586;28;20041;-57
2023/06/30 07:10:16;;;;;;;8.45;7.45;;;22.00;60.70;;;23.62;47.47;97189.91;5032609;28;20049;-56
2023/06/30 07:12:43;;;;;;;7.78;7.05;;;22.00;60.50;;;23.61;47.63;97191.78;5032849;28;20045;-56
2023/06/30 07:15:11;;;;;;;11.65;8.32;;;21.90;61.00;;;23.62;47.68;97198.06;5032789;28;20394;-56
2023/06/30 07:17:38;;;;;;;10.48;8.40;;;22.00;61.00;;;23.51;48.09;97205.28;5032933;28;20045;-55
2023/06/30 07:20:07;;;;;;;8.55;7.80;;;21.90;61.70;;;23.44;48.73;97212.78;5032575;28;20042;-53
2023/06/30 07:22:34;;;;;;;12.10;9.50;;;21.80;62.40;;;23.29;48.91;97219.69;5033315;28;20476;-56
2023/06/30 07:25:03;;;;;;;10.85;8.75;;;21.50;63.80;;;23.23;49.16;97225.34;5032508;28;20473;-56
2023/06/30 07:27:31;;;;;;;11.35;8.73;;;21.40;64.70;;;23.19;49.14;97225.00;5032592;28;20089;-54
2023/06/30 07:29:58;;;;;;;12.63;8.50;;;21.40;64.70;;;23.16;49.31;97234.47;5032541;28;20424;-54
2023/06/30 07:32:26;;;;;;;14.82;9.35;;;21.30;66.10;;;23.07;49.94;97235.16;5032669;28;20053;-56
2023/06/30 07:34:54;;;;;;;10.18;9.18;;;21.20;66.10;;;23.04;50.47;97239.19;5032538;28;20103;-55
2023/06/30 07:37:21;;;;;;;10.88;8.35;;;21.20;67.70;;;23.02;51.11;97235.06;5032548;28;20417;-54
2023/06/30 07:39:49;;;;;;;10.45;8.68;;;21.20;69.80;;;23.04;52.18;97235.66;5031946;28;20068;-56
2023/06/30 07:42:17;;;;;;;11.27;10.13;;;21.20;72.60;;;23.06;52.57;97237.06;5032430;28;20049;-56
2023/06/30 07:44:44;;;;;;;10.88;9.45;;;21.30;75.30;;;23.05;52.76;97242.72;5032585;28;20041;-56
2023/06/30 07:47:12;;;;;;;14.57;10.32;;;21.20;75.50;;;23.01;53.51;97239.66;5031971;28;20417;-56
2023/06/30 07:49:39;;;;;;;12.65;10.45;;;21.20;78.10;;;23.02;53.76;97254.88;5030112;28;20046;-56
2023/06/30 07:52:07;;;;;;;16.77;10.27;;;21.20;78.50;;;23.07;53.40;97251.44;5032427;28;20034;-56
2023/06/30 07:54:35;;;;;;;12.13;10.77;;;21.30;78.50;;;22.99;54.06;97258.09;5032299;28;20041;-57
2023/06/30 07:57:03;;;;;;;14.30;10.75;;;21.20;80.20;;;22.89;54.57;97257.94;5032265;28;20034;-57
2023/06/30 07:59:31;;;;;;;16.05;12.70;;;21.10;80.80;;;22.84;54.25;97258.72;5039078;28;20052;-56
2023/06/30 08:01:59;;;;;;;14.57;11.52;;;21.10;80.10;;;22.84;54.63;97258.72;5032099;28;20053;-56
2023/06/30 08:04:30;;;;;;;16.20;11.63;;;21.20;80.80;;;22.87;54.42;97260.09;5032012;28;20049;-55
2023/06/30 08:06:57;;;;;;;16.80;12.52;;;21.20;79.80;;;22.87;54.77;97260.91;5030587;28;20049;-57
2023/06/30 08:09:26;;;;;;;19.80;13.32;;;21.20;80.30;;;22.81;54.60;97265.44;5038724;28;20057;-57
2023/06/30 08:11:54;;;;;;;17.08;13.80;;;21.20;80.50;;;22.75;54.96;97269.16;5031697;28;20041;-56
2023/06/30 08:14:21;;;;;;;17.75;12.50;;;21.00;82.50;;;22.69;55.57;97269.34;5031863;28;20493;-56
2023/06/30 08:16:49;;;;;;;17.10;12.82;;;21.10;82.80;;;22.74;55.71;97270.25;5031988;28;20034;-57
2023/06/30 08:19:16;;;;;;;16.30;12.82;;;21.10;84.00;;;22.74;55.80;97280.25;5031422;28;20417;-57
2023/06/30 08:22:04;;;;;;;14.43;12.02;;;21.10;85.00;;;22.75;55.87;97277.28;5031912;28;20056;-57
2023/06/30 08:24:32;;;;;;;18.60;13.80;;;21.10;86.50;;;22.78;56.16;97279.53;5031526;28;20117;-55
2023/06/30 08:27:00;;;;;;;14.95;12.70;;;21.10;87.40;;;22.81;56.52;97278.19;5031443;28;20500;-57
2023/06/30 08:29:27;;;;;;;15.30;13.35;;;21.10;89.40;;;22.79;56.88;97280.34;5030398;28;20394;-57
2023/06/30 08:31:55;;;;;;;15.07;12.40;;;21.00;91.30;;;22.76;56.88;97276.25;5031369;28;20094;-57
2023/06/30 08:34:25;;;;;;;16.05;11.77;;;21.00;92.50;;;22.65;57.59;97273.63;5031223;28;20048;-57
2023/06/30 08:36:55;;;;;;;16.83;12.60;;;20.90;95.10;;;22.58;57.99;97280.00;5031582;28;20033;-57
2023/06/30 08:39:23;;;;;;;17.60;12.88;;;20.70;97.20;;;22.56;58.16;97279.44;5031066;28;20497;-56
2023/06/30 08:41:54;;;;;;;15.90;12.68;;;20.60;99.90;;;22.40;59.15;97280.28;5031265;28;20057;-57
2023/06/30 08:44:27;;;;;;;16.08;12.77;;;20.50;99.90;;;22.36;58.75;97277.22;5031375;28;20500;-57
2023/06/30 08:47:00;;;;;;;22.10;13.07;;;20.40;99.90;;;22.29;59.13;97275.75;5031413;28;20049;-55
2023/06/30 08:49:29;;;;;;;16.42;12.27;;;20.40;99.90;;;22.31;59.51;97281.75;5028256;28;20053;-55
2023/06/30 08:51:57;;;;;;;17.42;12.88;;;20.40;99.90;;;22.32;59.49;97281.50;5029762;28;20046;-57
2023/06/30 08:54:27;;;;;;;17.10;14.43;;;20.40;99.90;;;22.35;59.37;97278.31;5031143;28;20053;-56
2023/06/30 08:56:57;;;;;;;16.63;12.65;;;20.50;99.90;;;22.36;59.43;97277.22;5030071;28;20052;-51
2023/06/30 08:59:25;;;;;;;17.00;13.75;;;20.50;99.90;;;22.31;59.74;97279.84;5029646;28;20050;-52
2023/06/30 09:01:56;;;;;;;17.75;14.05;;;20.40;99.90;;;22.30;59.82;97278.22;5031190;28;20049;-55
2023/06/30 09:04:24;;;;;;;16.35;14.00;;;20.40;99.90;;;22.26;60.13;97273.53;5013829;28;20076;-54
2023/06/30 09:06:53;;;;;;;19.98;14.15;;;20.40;99.90;;;22.26;60.09;97263.50;5031161;28;20046;-54
2023/06/30 09:09:35;;;;;;;18.38;13.77;;;20.40;99.90;;;22.30;60.06;97261.94;5030972;28;20045;-53
2023/06/30 09:12:04;;;;;;;17.13;13.38;;;20.50;99.90;;;22.33;60.52;97269.59;5021661;28;20042;-53
2023/06/30 09:14:34;;;;;;;19.45;14.10;;;20.50;99.90;;;22.35;60.75;97269.34;5037569;28;20057;-54
2023/06/30 09:17:02;;;;;;;18.75;13.70;;;20.60;99.90;;;22.33;60.53;97277.75;5029755;28;20052;-54
2023/06/30 09:19:30;;;;;;;15.23;13.27;;;20.50;99.90;;;22.26;61.30;97270.81;5029299;28;20045;-53
2023/06/30 09:21:58;;;;;;;19.73;14.13;;;20.40;99.90;;;22.29;61.35;97271.13;5030796;28;20041;-56
2023/06/30 09:24:26;;;;;;;15.35;13.75;;;20.40;99.90;;;22.27;60.93;97264.31;5030562;28;20050;-55
2023/06/30 09:26:53;;;;;;;14.00;12.57;;;20.40;99.90;;;22.22;61.39;97259.63;5030713;28;20412;-55
2023/06/30 09:29:23;;;;;;;20.00;14.60;;;20.40;99.90;;;22.16;61.44;97260.59;5029403;28;20045;-55
2023/06/30 09:31:51;;;;;;;18.17;13.82;;;20.30;99.90;;;22.01;61.70;97251.13;5030777;28;20432;-54
2023/06/30 09:34:19;;;;;;;18.42;14.15;;;20.20;99.90;;;22.04;62.09;97255.22;5029659;28;20507;-54
2023/06/30 09:36:50;;;;;;;22.10;15.45;;;20.20;99.90;;;22.10;62.00;97248.00;5030842;28;20041;-55
2023/06/30 09:39:18;;;;;;;18.38;14.80;;;20.30;99.90;;;22.17;61.73;97248.69;5030701;28;20045;-54
2023/06/30 09:41:48;;;;;;;19.48;14.93;;;20.40;99.90;;;22.14;62.23;97244.56;5030609;28;20045;-51
2023/06/30 09:44:20;;;;;;;20.13;15.65;;;20.40;99.90;;;22.13;61.92;97244.81;5029362;28;20045;-52
2023/06/30 09:46:49;;;;;;;19.95;15.25;;;20.40;99.90;;;22.19;62.09;97241.13;5029339;28;20105;-51
2023/06/30 09:49:30;;;;;;;22.13;17.02;;;20.50;99.90;;;22.25;62.32;97239.34;5030090;28;20049;-53
2023/06/30 09:52:05;;;;;;;21.55;18.17;;;20.50;99.90;;;22.23;62.30;97244.97;5023726;28;20041;-55
2023/06/30 09:54:33;;;;;;;24.50;18.02;;;20.50;99.90;;;22.14;62.99;97243.72;5030662;28;20045;-54
2023/06/30 09:57:08;;;;;;;22.85;17.35;;;20.50;99.90;;;22.14;62.91;97241.88;5030144;28;20051;-52
2023/06/30 09:59:36;;;;;;;26.58;18.08;;;20.50;99.90;;;22.14;63.38;97243.72;5030339;28;20038;-55
2023/06/30 10:02:03;;;;;;;28.65;20.95;;;20.50;99.90;;;22.15;62.95;97251.63;5031247;28;20509;-54
2023/06/30 10:04:31;;;;;;;29.58;20.80;;;20.50;99.90;;;22.25;62.98;97248.28;5034243;28;20049;-55
2023/06/30 10:07:00;;;;;;;28.45;21.50;;;20.60;99.90;;;22.27;62.57;97251.56;5033049;28;20053;-53
2023/06/30 10:09:30;;;;;;;28.95;20.13;;;20.60;99.90;;;22.34;62.43;97254.16;5032744;28;20052;-52
2023/06/30 10:11:59;;;;;;;27.13;20.73;;;20.70;99.90;;;22.35;62.78;97258.47;5032885;28;20060;-55
2023/06/30 10:14:32;;;;;;;30.05;21.58;;;20.80;99.90;;;22.42;62.61;97256.44;5032865;28;20037;-51
2023/06/30 10:17:02;;;;;;;25.50;21.08;;;20.80;99.90;;;22.44;62.54;97262.44;5034150;28;20049;-52
2023/06/30 10:19:31;;;;;;;29.17;21.27;;;20.80;99.90;;;22.47;62.43;97259.25;5033684;28;20527;-55
2023/06/30 10:21:59;;;;;;;27.38;20.80;;;20.90;99.90;;;22.44;62.25;97264.34;5034370;28;20065;-52
2023/06/30 10:24:29;;;;;;;31.35;20.58;;;20.90;99.90;;;22.42;62.35;97259.97;5033042;28;20049;-53